createdAt,value
2018-11-03T00:02:23.133Z,5.80
2018-11-03T00:04:51.933Z,6.17
2018-11-03T00:07:20.828Z,5.70
2018-11-03T00:09:49.584Z,7.35
2018-11-03T00:12:18.461Z,8.70
2018-11-03T00:14:47.410Z,8.33
2018-11-03T00:17:16.093Z,7.83
2018-11-03T00:19:44.946Z,6.07
2018-11-03T00:22:13.779Z,8.43
2018-11-03T00:24:42.721Z,7.37
2018-11-03T00:27:11.590Z,6.72
2018-11-03T00:29:40.378Z,9.60
2018-11-03T00:32:09.101Z,8.47
2018-11-03T00:34:38.070Z,6.97
2018-11-03T00:37:06.792Z,6.40
2018-11-03T00:39:35.518Z,7.13
2018-11-03T00:42:04.531Z,7.00
2018-11-03T00:44:33.287Z,8.57
2018-11-03T00:47:01.996Z,7.63
2018-11-03T00:49:30.890Z,8.87
2018-11-03T00:51:59.591Z,8.37
2018-11-03T00:54:28.329Z,10.30
2018-11-03T00:56:57.408Z,9.23
2018-11-03T00:59:26.155Z,9.27
2018-11-03T01:01:54.914Z,7.87
2018-11-03T01:04:23.743Z,9.10
2018-11-03T01:06:52.489Z,7.03
2018-11-03T01:09:21.212Z,8.20
2018-11-03T01:11:49.986Z,9.30
2018-11-03T01:14:18.682Z,11.80
2018-11-03T01:16:47.487Z,8.77
2018-11-03T01:19:16.355Z,10.63
2018-11-03T01:21:45.097Z,12.68
2018-11-03T01:24:13.880Z,9.20
2018-11-03T01:26:42.773Z,10.60
2018-11-03T01:29:11.841Z,11.00
2018-11-03T01:31:40.587Z,9.57
2018-11-03T01:34:09.564Z,9.80
2018-11-03T01:36:38.392Z,11.23
2018-11-03T01:39:09.325Z,11.50
2018-11-03T01:41:38.359Z,11.70
2018-11-03T01:44:07.150Z,9.33
2018-11-03T01:46:36.933Z,8.93
2018-11-03T01:49:05.995Z,9.78
2018-11-03T01:51:34.742Z,9.73
2018-11-03T01:54:03.472Z,10.23
2018-11-03T01:56:32.286Z,14.23
2018-11-03T01:59:00.973Z,12.67
2018-11-03T02:01:29.668Z,9.50
2018-11-03T02:03:58.468Z,10.63
2018-11-03T02:06:27.276Z,11.97
2018-11-03T02:08:55.940Z,11.87
2018-11-03T02:11:24.674Z,10.10
2018-11-03T02:13:53.386Z,10.53
2018-11-03T02:16:22.116Z,11.18
2018-11-03T02:18:51.008Z,10.07
2018-11-03T02:21:19.726Z,10.57
2018-11-03T02:23:48.522Z,11.10
2018-11-03T02:26:17.349Z,11.87
2018-11-03T02:28:45.998Z,12.03
2018-11-03T02:31:14.679Z,12.43
2018-11-03T02:33:43.527Z,10.60
2018-11-03T02:36:12.209Z,11.63
2018-11-03T02:38:40.962Z,11.27
2018-11-03T02:41:09.886Z,11.83
2018-11-03T02:43:38.543Z,12.93
2018-11-03T02:46:07.286Z,12.90
2018-11-03T02:48:36.345Z,11.53
2018-11-03T02:51:05.235Z,16.13
2018-11-03T02:53:34.039Z,12.83
2018-11-03T02:56:03.219Z,10.90
2018-11-03T02:58:31.901Z,13.67
2018-11-03T03:01:00.555Z,11.80
2018-11-03T03:03:29.265Z,10.20
2018-11-03T03:05:57.958Z,14.20
2018-11-03T03:08:26.702Z,12.37
2018-11-03T03:10:55.498Z,13.47
2018-11-03T03:13:24.171Z,10.90
2018-11-03T03:15:52.871Z,12.03
2018-11-03T03:18:21.826Z,13.70
2018-11-03T03:20:51.054Z,11.30
2018-11-03T03:23:19.761Z,11.30
2018-11-03T03:25:48.547Z,12.00
2018-11-03T03:28:17.208Z,13.10
2018-11-03T03:30:45.920Z,10.98
2018-11-03T03:33:14.905Z,11.67
2018-11-03T03:35:43.638Z,14.95
2018-11-03T03:38:12.381Z,12.20
2018-11-03T03:40:41.159Z,12.00
2018-11-03T03:43:09.847Z,12.07
2018-11-03T03:45:38.564Z,13.33
2018-11-03T03:48:07.443Z,12.20
2018-11-03T03:50:37.176Z,13.40
2018-11-03T03:53:05.870Z,12.17
2018-11-03T03:55:34.678Z,11.00
2018-11-03T03:58:03.425Z,14.97
2018-11-03T04:00:32.107Z,12.50
2018-11-03T04:03:00.834Z,12.70
2018-11-03T04:05:29.541Z,11.87
2018-11-03T04:07:58.226Z,15.13
2018-11-03T04:10:27.013Z,12.37
2018-11-03T04:12:55.743Z,12.37
2018-11-03T04:15:24.467Z,16.53
2018-11-03T04:17:53.259Z,14.73
2018-11-03T04:20:21.952Z,13.93
2018-11-03T04:22:50.769Z,13.43
2018-11-03T04:25:19.771Z,15.47
2018-11-03T04:27:48.534Z,13.17
2018-11-03T04:30:17.218Z,13.85
2018-11-03T04:32:46.221Z,12.77
2018-11-03T04:35:14.972Z,13.80
2018-11-03T04:37:43.658Z,12.70
2018-11-03T04:40:13.065Z,12.03
2018-11-03T04:42:42.125Z,13.63
2018-11-03T04:45:11.726Z,12.50
2018-11-03T04:47:40.577Z,12.20
2018-11-03T04:50:10.240Z,12.43
2018-11-03T04:52:39.033Z,17.20
2018-11-03T04:55:08.958Z,14.93
2018-11-03T04:57:37.602Z,13.10
2018-11-03T05:00:08.029Z,12.23
2018-11-03T05:02:37.387Z,11.70
2018-11-03T05:05:06.231Z,12.10
2018-11-03T05:07:34.963Z,14.53
2018-11-03T05:10:04.014Z,14.30
2018-11-03T05:12:32.676Z,13.00
2018-11-03T05:15:01.364Z,13.83
2018-11-03T05:17:30.138Z,11.90
2018-11-03T05:19:58.817Z,12.87
2018-11-03T05:22:27.496Z,14.43
2018-11-03T05:24:56.464Z,11.70
2018-11-03T05:27:25.123Z,16.02
2018-11-03T05:29:53.785Z,12.53
2018-11-03T05:32:22.574Z,16.03
2018-11-03T05:34:51.260Z,14.38
2018-11-03T05:37:19.918Z,19.57
2018-11-03T05:39:48.656Z,12.53
2018-11-03T05:42:17.326Z,13.65
2018-11-03T05:44:45.997Z,12.23
2018-11-03T05:47:14.839Z,14.37
2018-11-03T05:49:43.502Z,15.50
2018-11-03T05:52:12.206Z,17.52
2018-11-03T05:54:40.998Z,19.30
2018-11-03T05:57:09.727Z,18.47
2018-11-03T05:59:38.584Z,21.62
2018-11-03T06:02:07.477Z,20.02
2018-11-03T06:04:36.165Z,21.30
2018-11-03T06:07:05.125Z,21.80
2018-11-03T06:09:34.020Z,21.70
2018-11-03T06:12:02.746Z,21.33
2018-11-03T06:14:31.429Z,17.90
2018-11-03T06:17:00.438Z,16.70
2018-11-03T06:19:29.164Z,16.30
2018-11-03T06:21:57.926Z,16.43
2018-11-03T06:24:26.794Z,16.03
2018-11-03T06:26:55.791Z,15.27
2018-11-03T06:29:24.533Z,13.83
2018-11-03T06:31:53.456Z,14.40
2018-11-03T06:34:22.144Z,14.77
2018-11-03T06:36:50.813Z,15.90
2018-11-03T06:39:19.877Z,17.55
2018-11-03T06:41:48.567Z,14.18
2018-11-03T06:44:17.257Z,13.30
2018-11-03T06:46:46.149Z,13.98
2018-11-03T06:49:21.993Z,14.87
2018-11-03T06:51:52.051Z,13.20
2018-11-03T06:54:21.034Z,13.60
2018-11-03T06:56:49.745Z,17.45
2018-11-03T06:59:18.947Z,12.30
2018-11-03T07:01:47.707Z,15.68
2018-11-03T07:04:16.418Z,14.33
2018-11-03T07:06:45.307Z,13.93
2018-11-03T07:09:17.661Z,15.33
2018-11-03T07:11:47.366Z,12.53
2018-11-03T07:14:16.004Z,13.58
2018-11-03T07:16:44.678Z,15.48
2018-11-03T07:19:13.425Z,17.47
2018-11-03T07:21:42.300Z,14.20
2018-11-03T07:24:10.915Z,16.90
2018-11-03T07:26:39.699Z,15.13
2018-11-03T07:29:08.642Z,18.70
2018-11-03T07:31:37.574Z,15.55
2018-11-03T07:34:06.731Z,14.83
2018-11-03T07:36:35.457Z,15.07
2018-11-03T07:39:05.606Z,15.47
2018-11-03T07:41:34.721Z,14.03
2018-11-03T07:44:03.506Z,15.37
2018-11-03T07:46:32.121Z,14.43
2018-11-03T07:49:01.388Z,14.27
2018-11-03T07:51:29.995Z,14.03
2018-11-03T07:53:58.732Z,17.37
2018-11-03T07:56:27.618Z,15.83
2018-11-03T07:58:56.327Z,17.10
2018-11-03T08:01:25.022Z,14.35
2018-11-03T08:03:53.858Z,13.48
2018-11-03T08:06:22.550Z,14.60
2018-11-03T08:08:51.257Z,15.50
2018-11-03T08:11:19.971Z,14.70
2018-11-03T08:13:48.654Z,14.68
2018-11-03T08:16:17.331Z,16.93
2018-11-03T08:18:46.055Z,17.97
2018-11-03T08:21:14.741Z,13.98
2018-11-03T08:23:43.463Z,16.13
2018-11-03T08:26:12.145Z,18.12
2018-11-03T08:28:42.610Z,18.67
2018-11-03T08:31:11.531Z,14.87
2018-11-03T08:33:40.285Z,17.47
2018-11-03T08:36:08.984Z,15.40
2018-11-03T08:38:37.700Z,16.03
2018-11-03T08:41:07.082Z,17.20
2018-11-03T08:43:35.813Z,18.73
2018-11-03T08:46:04.888Z,17.40
2018-11-03T08:48:33.748Z,18.20
2018-11-03T08:51:02.537Z,18.63
2018-11-03T08:53:31.298Z,16.67
2018-11-03T08:56:00.158Z,19.07
2018-11-03T08:58:28.868Z,16.43
2018-11-03T09:00:57.620Z,18.37
2018-11-03T09:03:26.463Z,17.40
2018-11-03T09:05:55.126Z,15.97
2018-11-03T09:08:23.835Z,18.57
2018-11-03T09:10:52.959Z,17.85
2018-11-03T09:13:21.944Z,18.13
2018-11-03T09:15:50.634Z,18.87
2018-11-03T09:18:19.357Z,18.35
2018-11-03T09:20:48.116Z,17.97
2018-11-03T09:23:16.862Z,15.60
2018-11-03T09:25:45.683Z,16.93
2018-11-03T09:28:14.377Z,14.90
2018-11-03T09:30:43.110Z,16.63
2018-11-03T09:33:12.019Z,16.52
2018-11-03T09:35:40.691Z,16.57
2018-11-03T09:38:09.437Z,15.33
2018-11-03T09:40:38.258Z,16.67
2018-11-03T09:43:07.909Z,14.75
2018-11-03T09:45:36.563Z,15.10
2018-11-03T09:48:05.406Z,13.93
2018-11-03T09:50:34.207Z,15.10
2018-11-03T09:53:02.943Z,13.87
2018-11-03T09:55:31.804Z,14.00
2018-11-03T09:58:00.580Z,16.57
2018-11-03T10:00:29.343Z,17.47
2018-11-03T10:02:58.442Z,17.43
2018-11-03T10:05:27.625Z,14.13
2018-11-03T10:07:56.446Z,14.00
2018-11-03T10:10:25.250Z,16.10
2018-11-03T10:12:54.162Z,16.77
2018-11-03T10:15:22.865Z,14.43
2018-11-03T10:17:51.661Z,16.50
2018-11-03T10:20:20.501Z,15.33
2018-11-03T10:22:49.205Z,15.20
2018-11-03T10:25:19.874Z,14.10
2018-11-03T10:27:49.141Z,13.27
2018-11-03T10:30:18.487Z,15.85
2018-11-03T10:32:47.772Z,13.63
2018-11-03T10:35:16.604Z,12.35
2018-11-03T10:37:45.575Z,14.10
2018-11-03T10:40:16.037Z,12.47
2018-11-03T10:42:44.842Z,14.70
2018-11-03T10:45:14.826Z,13.43
2018-11-03T10:47:43.847Z,13.30
2018-11-03T10:50:17.317Z,13.55
2018-11-03T10:52:46.574Z,16.32
2018-11-03T10:55:16.643Z,13.23
2018-11-03T10:57:45.493Z,12.43
2018-11-03T11:00:21.905Z,16.67
2018-11-03T11:02:55.700Z,12.83
2018-11-03T11:05:29.799Z,12.18
2018-11-03T11:08:03.721Z,12.63
2018-11-03T11:10:37.827Z,10.73
2018-11-03T11:13:10.908Z,10.50
2018-11-03T11:15:39.818Z,11.77
2018-11-03T11:18:08.514Z,12.13
2018-11-03T11:20:38.137Z,10.30
2018-11-03T11:23:07.219Z,12.03
2018-11-03T11:25:35.933Z,13.60
2018-11-03T11:28:04.860Z,11.80
2018-11-03T11:30:37.914Z,12.63
2018-11-03T11:33:09.514Z,10.30
2018-11-03T11:35:38.437Z,16.03
2018-11-03T11:38:08.839Z,14.45
2018-11-03T11:40:38.357Z,10.18
2018-11-03T11:43:09.216Z,10.63
2018-11-03T11:45:38.323Z,10.97
2018-11-03T11:48:08.151Z,10.10
2018-11-03T11:50:37.060Z,11.03
2018-11-03T11:53:06.117Z,13.73
2018-11-03T11:55:34.875Z,10.93
2018-11-03T11:58:03.864Z,12.47
2018-11-03T12:00:32.630Z,11.73
2018-11-03T12:03:01.521Z,13.73
2018-11-03T12:05:30.295Z,11.77
2018-11-03T12:07:59.062Z,12.10
2018-11-03T12:10:27.843Z,9.87
2018-11-03T12:12:56.624Z,10.70
2018-11-03T12:15:25.343Z,10.57
2018-11-03T12:17:54.097Z,9.63
2018-11-03T12:20:22.834Z,11.15
2018-11-03T12:22:51.551Z,10.43
2018-11-03T12:25:20.233Z,9.03
2018-11-03T12:27:49.222Z,15.58
2018-11-03T12:30:17.990Z,10.80
2018-11-03T12:32:46.738Z,8.30
2018-11-03T12:35:15.634Z,9.55
2018-11-03T12:37:44.673Z,8.97
2018-11-03T12:40:15.466Z,6.40
2018-11-03T12:42:44.407Z,7.65
2018-11-03T12:45:13.620Z,6.83
2018-11-03T12:47:42.726Z,10.47
2018-11-03T12:50:14.146Z,10.00
2018-11-03T12:52:42.920Z,7.37
2018-11-03T12:55:11.991Z,6.87
2018-11-03T12:57:41.699Z,6.53
2018-11-03T13:00:12.242Z,7.07
2018-11-03T13:02:41.636Z,6.33
2018-11-03T13:05:10.791Z,7.33
2018-11-03T13:07:40.543Z,6.77
2018-11-03T13:10:10.272Z,8.00
2018-11-03T13:12:39.693Z,8.93
2018-11-03T13:15:09.361Z,7.07
2018-11-03T13:17:38.639Z,7.80
2018-11-03T13:20:09.752Z,7.50
2018-11-03T13:22:38.478Z,7.20
2018-11-03T13:25:08.862Z,7.35
2018-11-03T13:27:38.795Z,8.05
2018-11-03T13:30:09.988Z,8.23
2018-11-03T13:32:39.483Z,6.00
2018-11-03T13:35:09.279Z,9.30
2018-11-03T13:37:38.221Z,8.48
2018-11-03T13:40:08.077Z,9.43
2018-11-03T13:42:36.779Z,7.33
2018-11-03T13:45:06.325Z,7.10
2018-11-03T13:47:35.325Z,7.60
2018-11-03T13:50:07.806Z,10.93
2018-11-03T13:52:37.097Z,9.60
2018-11-03T13:55:06.331Z,9.07
2018-11-03T13:57:35.059Z,5.60
2018-11-03T14:00:04.003Z,6.20
2018-11-03T14:02:32.818Z,6.63
2018-11-03T14:05:01.544Z,5.83
2018-11-03T14:07:30.391Z,6.53
2018-11-03T14:09:59.111Z,8.40
2018-11-03T14:12:27.865Z,5.00
2018-11-03T14:14:56.704Z,6.80
2018-11-03T14:17:25.468Z,5.25
2018-11-03T14:19:54.160Z,8.63
2018-11-03T14:22:23.011Z,5.30
2018-11-03T14:24:52.649Z,5.05
2018-11-03T14:27:21.351Z,23.25
2018-11-03T14:29:50.166Z,7.60
2018-11-03T14:32:18.870Z,4.20
2018-11-03T14:34:47.594Z,5.83
2018-11-03T14:37:16.474Z,4.80
2018-11-03T14:39:45.218Z,6.67
2018-11-03T14:42:14.154Z,6.00
2018-11-03T14:44:43.102Z,4.80
2018-11-03T14:47:11.784Z,6.47
2018-11-03T14:49:40.793Z,4.97
2018-11-03T14:52:09.883Z,12.37
2018-11-03T14:54:38.596Z,31.87
2018-11-03T14:57:08.522Z,10.60
2018-11-03T14:59:37.593Z,24.13
2018-11-03T15:02:06.351Z,57.03
2018-11-03T15:04:36.023Z,9.73
2018-11-03T15:07:05.098Z,5.53
2018-11-03T15:09:33.814Z,6.57
2018-11-03T15:12:02.524Z,6.40
2018-11-03T15:14:31.281Z,8.28
2018-11-03T15:17:00.072Z,8.67
2018-11-03T15:19:28.869Z,8.00
2018-11-03T15:21:57.746Z,9.20
2018-11-03T15:24:26.432Z,6.10
2018-11-03T15:26:55.123Z,5.90
2018-11-03T15:29:23.868Z,5.97
2018-11-03T15:31:52.626Z,5.03
2018-11-03T15:34:21.381Z,6.25
2018-11-03T15:36:50.348Z,7.43
2018-11-03T15:39:19.063Z,4.07
2018-11-03T15:41:47.852Z,5.03
2018-11-03T15:44:16.890Z,6.17
2018-11-03T15:46:45.771Z,4.73
2018-11-03T15:49:15.167Z,7.00
2018-11-03T15:51:44.054Z,8.07
2018-11-03T15:54:12.862Z,11.22
2018-11-03T15:56:41.607Z,6.15
2018-11-03T15:59:10.467Z,9.27
2018-11-03T16:01:39.178Z,9.97
2018-11-03T16:04:08.648Z,8.60
2018-11-03T16:06:37.476Z,8.77
2018-11-03T16:09:09.114Z,8.23
2018-11-03T16:11:38.647Z,8.73
2018-11-03T16:14:07.701Z,8.47
2018-11-03T16:16:36.514Z,7.10
2018-11-03T16:19:05.915Z,7.63
2018-11-03T16:21:34.615Z,8.03
2018-11-03T16:24:03.366Z,8.67
2018-11-03T16:26:32.384Z,7.80
2018-11-03T16:29:01.142Z,8.80
2018-11-03T16:31:36.554Z,7.07
2018-11-03T16:34:05.620Z,12.57
2018-11-03T16:36:34.286Z,10.23
2018-11-03T16:39:03.208Z,8.93
2018-11-03T16:41:32.108Z,9.77
2018-11-03T16:44:00.807Z,10.47
2018-11-03T16:46:29.665Z,11.37
2018-11-03T16:48:58.382Z,9.80
2018-11-03T16:51:27.054Z,10.87
2018-11-03T16:53:55.996Z,9.40
2018-11-03T16:56:24.738Z,10.78
2018-11-03T16:58:53.497Z,11.70
2018-11-03T17:01:22.376Z,9.18
2018-11-03T17:03:51.105Z,9.93
2018-11-03T17:06:20.028Z,9.70
2018-11-03T17:08:48.836Z,11.48
2018-11-03T17:11:17.615Z,8.93
2018-11-03T17:13:46.343Z,11.40
2018-11-03T17:16:15.421Z,9.53
2018-11-03T17:18:44.156Z,8.83
2018-11-03T17:21:12.976Z,13.70
2018-11-03T17:23:41.818Z,12.68
2018-11-03T17:26:10.549Z,11.37
2018-11-03T17:28:39.326Z,10.90
2018-11-03T17:31:08.927Z,11.10
2018-11-03T17:33:37.758Z,10.17
2018-11-03T17:36:06.613Z,12.77
2018-11-03T17:38:35.358Z,9.17
2018-11-03T17:41:04.170Z,9.60
2018-11-03T17:43:33.113Z,10.23
2018-11-03T17:46:02.290Z,11.03
2018-11-03T17:48:31.251Z,8.70
2018-11-03T17:51:00.015Z,9.40
2018-11-03T17:53:28.765Z,14.63
2018-11-03T17:55:57.578Z,14.67
2018-11-03T17:58:26.328Z,13.33
2018-11-03T18:00:55.464Z,10.40
2018-11-03T18:03:24.119Z,9.53
2018-11-03T18:05:52.863Z,9.97
2018-11-03T18:08:22.003Z,10.95
2018-11-03T18:10:50.686Z,10.03
2018-11-03T18:13:19.476Z,21.10
2018-11-03T18:15:48.263Z,15.83
2018-11-03T18:18:17.049Z,23.90
2018-11-03T18:20:45.976Z,10.30
2018-11-03T18:23:14.883Z,12.43
2018-11-03T18:25:43.578Z,12.80
2018-11-03T18:28:12.384Z,16.20
2018-11-03T18:30:41.340Z,18.73
2018-11-03T18:33:10.052Z,15.53
2018-11-03T18:35:38.930Z,13.35
2018-11-03T18:38:07.870Z,10.43
2018-11-03T18:40:36.989Z,13.17
2018-11-03T18:43:06.759Z,10.40
2018-11-03T18:45:35.691Z,12.80
2018-11-03T18:48:05.469Z,18.00
2018-11-03T18:50:34.426Z,15.20
2018-11-03T18:53:03.382Z,16.03
2018-11-03T18:55:32.209Z,9.20
2018-11-03T18:58:00.958Z,10.45
2018-11-03T19:00:29.828Z,10.37
2018-11-03T19:02:58.619Z,10.30
2018-11-03T19:05:27.494Z,10.60
2018-11-03T19:07:56.453Z,10.47
2018-11-03T19:10:25.708Z,12.47
2018-11-03T19:12:54.879Z,12.53
2018-11-03T19:15:23.925Z,7.83
2018-11-03T19:17:52.772Z,9.83
2018-11-03T19:20:21.559Z,7.90
2018-11-03T19:22:50.447Z,8.43
2018-11-03T19:25:19.271Z,8.00
2018-11-03T19:27:48.132Z,13.97
2018-11-03T19:30:17.219Z,10.75
2018-11-03T19:32:46.172Z,9.30
2018-11-03T19:35:15.060Z,8.48
2018-11-03T19:37:44.609Z,9.50
2018-11-03T19:40:14.189Z,7.67
2018-11-03T19:42:43.322Z,8.13
2018-11-03T19:45:13.009Z,10.40
2018-11-03T19:47:41.837Z,7.80
2018-11-03T19:50:11.208Z,8.63
2018-11-03T19:52:40.346Z,7.97
2018-11-03T19:55:09.284Z,16.97
2018-11-03T19:57:39.174Z,18.05
2018-11-03T20:00:10.869Z,31.15
2018-11-03T20:02:39.817Z,24.37
2018-11-03T20:05:10.043Z,20.95
2018-11-03T20:07:39.229Z,14.28
2018-11-03T20:10:09.281Z,11.33
2018-11-03T20:12:39.256Z,12.67
2018-11-03T20:15:09.744Z,11.10
2018-11-03T20:17:39.104Z,11.08
2018-11-03T20:20:09.676Z,12.53
2018-11-03T20:22:39.314Z,12.85
2018-11-03T20:25:10.633Z,12.98
2018-11-03T20:27:39.558Z,11.07
2018-11-03T20:30:12.329Z,16.77
2018-11-03T20:32:41.230Z,16.23
2018-11-03T20:35:11.481Z,21.37
2018-11-03T20:37:40.563Z,21.27
2018-11-03T20:40:11.090Z,19.60
2018-11-03T20:42:39.922Z,29.17
2018-11-03T20:45:09.522Z,17.32
2018-11-03T20:47:39.387Z,15.00
2018-11-03T20:50:11.159Z,14.93
2018-11-03T20:52:40.167Z,16.10
2018-11-03T20:55:09.566Z,14.63
2018-11-03T20:57:39.358Z,13.55
2018-11-03T21:00:10.475Z,13.33
2018-11-03T21:02:39.170Z,13.07
2018-11-03T21:05:09.270Z,15.70
2018-11-03T21:07:38.225Z,16.37
2018-11-03T21:10:07.210Z,12.43
2018-11-03T21:12:36.052Z,14.83
2018-11-03T21:15:04.840Z,13.27
2018-11-03T21:17:33.583Z,12.60
2018-11-03T21:20:02.702Z,28.10
2018-11-03T21:22:31.423Z,21.13
2018-11-03T21:25:00.205Z,13.53
2018-11-03T21:27:29.046Z,14.37
2018-11-03T21:29:57.838Z,14.83
2018-11-03T21:32:26.609Z,16.00
2018-11-03T21:34:55.401Z,12.80
2018-11-03T21:37:24.198Z,12.47
2018-11-03T21:39:53.087Z,16.48
2018-11-03T21:42:21.895Z,12.53
2018-11-03T21:44:50.643Z,13.43
2018-11-03T21:47:19.380Z,14.50
2018-11-03T21:49:48.336Z,15.00
2018-11-03T21:52:17.098Z,14.97
2018-11-03T21:54:45.989Z,14.90
2018-11-03T21:57:17.620Z,13.70
2018-11-03T21:59:46.345Z,15.20
2018-11-03T22:02:15.201Z,16.82
2018-11-03T22:04:43.886Z,14.10
2018-11-03T22:07:12.667Z,14.13
2018-11-03T22:09:41.645Z,13.13
2018-11-03T22:12:10.370Z,13.70
2018-11-03T22:14:39.322Z,15.72
2018-11-03T22:17:08.533Z,14.43
2018-11-03T22:19:37.250Z,13.65
2018-11-03T22:22:06.014Z,14.57
2018-11-03T22:24:34.827Z,19.03
2018-11-03T22:27:03.595Z,14.30
2018-11-03T22:29:38.983Z,17.17
2018-11-03T22:32:07.707Z,14.30
2018-11-03T22:34:36.465Z,17.37
2018-11-03T22:37:05.393Z,14.43
2018-11-03T22:39:34.091Z,15.27
2018-11-03T22:42:02.892Z,16.80
2018-11-03T22:44:31.717Z,14.13
2018-11-03T22:47:00.541Z,18.83
2018-11-03T22:49:29.223Z,14.50
2018-11-03T22:51:58.058Z,18.13
2018-11-03T22:54:26.762Z,21.60
2018-11-03T22:56:55.712Z,17.15
2018-11-03T22:59:24.486Z,19.30
2018-11-03T23:01:53.320Z,19.57
2018-11-03T23:04:22.062Z,19.30
2018-11-03T23:06:50.923Z,15.53
2018-11-03T23:09:19.650Z,14.57
2018-11-03T23:11:48.416Z,19.10
2018-11-03T23:14:17.560Z,18.77
2018-11-03T23:16:46.251Z,16.50
2018-11-03T23:19:15.010Z,15.77
2018-11-03T23:21:43.880Z,16.43
2018-11-03T23:24:12.595Z,17.57
2018-11-03T23:26:41.449Z,19.03
2018-11-03T23:29:10.354Z,15.33
2018-11-03T23:31:39.538Z,17.10
2018-11-03T23:34:08.252Z,14.10
2018-11-03T23:36:37.045Z,21.13
2018-11-03T23:39:08.464Z,16.83
2018-11-03T23:41:37.148Z,16.53
2018-11-03T23:44:06.091Z,16.87
2018-11-03T23:46:34.829Z,17.30
2018-11-03T23:49:03.637Z,16.53
2018-11-03T23:51:32.862Z,15.67
2018-11-03T23:54:08.215Z,16.60
2018-11-03T23:56:36.941Z,18.43
2018-11-03T23:59:06.114Z,19.20
